createdAt,value
2023-10-26T00:00:38.572Z,10.09
2023-10-26T00:03:40.129Z,10.08
2023-10-26T00:06:41.605Z,10.09
2023-10-26T00:09:43.025Z,10.09
2023-10-26T00:12:44.709Z,10.04
2023-10-26T00:15:46.184Z,9.83
2023-10-26T00:18:47.712Z,9.87
2023-10-26T00:21:49.170Z,9.79
2023-10-26T00:24:50.929Z,9.86
2023-10-26T00:27:52.661Z,9.66
2023-10-26T00:30:54.081Z,9.78
2023-10-26T00:33:55.540Z,9.83
2023-10-26T00:36:56.973Z,9.59
2023-10-26T00:39:58.485Z,9.70
2023-10-26T00:43:00.487Z,9.40
2023-10-26T00:46:01.946Z,9.52
2023-10-26T00:49:03.546Z,9.62
2023-10-26T00:52:05.222Z,9.56
2023-10-26T00:55:06.733Z,9.41
2023-10-26T00:58:08.291Z,9.48
2023-10-26T01:01:09.730Z,9.27
2023-10-26T01:04:16.838Z,9.24
2023-10-26T01:07:18.373Z,9.21
2023-10-26T01:10:19.786Z,9.19
2023-10-26T01:13:21.350Z,9.15
2023-10-26T01:16:23.054Z,9.17
2023-10-26T01:19:36.863Z,9.06
2023-10-26T01:22:38.316Z,9.14
2023-10-26T01:25:40.209Z,9.14
2023-10-26T01:28:41.628Z,8.98
2023-10-26T01:31:43.072Z,8.73
2023-10-26T01:34:44.659Z,8.89
2023-10-26T01:37:46.226Z,8.86
2023-10-26T01:40:47.736Z,8.86
2023-10-26T01:43:49.160Z,8.82
2023-10-26T01:46:50.597Z,8.78
2023-10-26T01:49:52.024Z,8.58
2023-10-26T01:52:53.558Z,8.65
2023-10-26T01:55:55.039Z,8.65
2023-10-26T01:58:56.489Z,8.56
2023-10-26T02:01:57.927Z,8.41
2023-10-26T02:04:59.474Z,8.59
2023-10-26T02:08:01.019Z,8.64
2023-10-26T02:11:02.513Z,8.51
2023-10-26T02:14:03.939Z,8.59
2023-10-26T02:17:05.700Z,8.60
2023-10-26T02:20:07.432Z,8.65
2023-10-26T02:23:08.931Z,8.49
2023-10-26T02:26:10.369Z,8.33
2023-10-26T02:29:11.875Z,8.48
2023-10-26T02:32:13.299Z,8.44
2023-10-26T02:35:14.857Z,8.53
2023-10-26T02:38:16.269Z,8.58
2023-10-26T02:41:17.682Z,8.48
2023-10-26T02:44:19.151Z,8.46
2023-10-26T02:47:20.585Z,8.43
2023-10-26T02:50:22.118Z,8.13
2023-10-26T02:53:23.756Z,8.11
2023-10-26T02:56:25.187Z,8.21
2023-10-26T02:59:26.784Z,8.29
2023-10-26T03:02:28.285Z,8.40
2023-10-26T03:05:31.135Z,8.28
2023-10-26T03:08:32.640Z,8.29
2023-10-26T03:11:34.072Z,8.32
2023-10-26T03:14:35.516Z,8.38
2023-10-26T03:17:37.074Z,8.00
2023-10-26T03:20:38.515Z,8.17
2023-10-26T03:23:39.948Z,8.31
2023-10-26T03:26:41.379Z,8.38
2023-10-26T03:29:42.802Z,8.43
2023-10-26T03:32:45.406Z,8.37
2023-10-26T03:35:46.872Z,8.34
2023-10-26T03:38:48.333Z,8.43
2023-10-26T03:41:49.754Z,8.37
2023-10-26T03:44:51.265Z,8.44
2023-10-26T03:47:52.806Z,8.48
2023-10-26T03:50:54.337Z,8.41
2023-10-26T03:53:55.807Z,8.41
2023-10-26T03:56:57.332Z,8.42
2023-10-26T03:59:58.848Z,8.51
2023-10-26T04:03:00.822Z,8.59
2023-10-26T04:06:04.382Z,8.55
2023-10-26T04:09:06.102Z,8.39
2023-10-26T04:12:07.815Z,8.49
2023-10-26T04:15:09.721Z,8.40
2023-10-26T04:18:11.605Z,8.46
2023-10-26T04:21:13.153Z,8.53
2023-10-26T04:24:14.625Z,8.52
2023-10-26T04:27:16.154Z,8.53
2023-10-26T04:30:17.692Z,8.53
2023-10-26T04:33:19.460Z,8.67
2023-10-26T04:36:21.635Z,8.75
2023-10-26T04:39:23.565Z,8.66
2023-10-26T04:42:25.093Z,8.77
2023-10-26T04:45:26.661Z,8.87
2023-10-26T04:48:28.176Z,8.82
2023-10-26T04:51:30.198Z,8.83
2023-10-26T04:54:31.738Z,8.83
2023-10-26T04:57:33.304Z,8.65
2023-10-26T05:00:34.917Z,8.74
2023-10-26T05:03:37.749Z,8.62
2023-10-26T05:06:39.320Z,8.76
2023-10-26T05:09:40.865Z,8.64
2023-10-26T05:12:42.361Z,8.83
2023-10-26T05:15:44.112Z,8.79
2023-10-26T05:18:45.615Z,8.82
2023-10-26T05:21:47.067Z,8.93
2023-10-26T05:24:48.529Z,8.94
2023-10-26T05:27:50.038Z,8.80
2023-10-26T05:30:51.452Z,8.84
2023-10-26T05:33:52.917Z,8.66
2023-10-26T05:36:54.422Z,8.77
2023-10-26T05:39:55.879Z,8.77
2023-10-26T05:42:57.426Z,8.90
2023-10-26T05:46:02.551Z,8.91
2023-10-26T05:49:04.221Z,8.84
2023-10-26T05:52:05.823Z,8.74
2023-10-26T05:55:07.428Z,8.71
2023-10-26T05:58:11.886Z,8.73
2023-10-26T06:01:13.382Z,8.66
2023-10-26T06:04:14.839Z,8.73
2023-10-26T06:07:16.285Z,8.58
2023-10-26T06:10:17.737Z,8.73
2023-10-26T06:13:19.231Z,8.85
2023-10-26T06:16:21.481Z,8.85
2023-10-26T06:19:22.997Z,8.98
2023-10-26T06:22:24.415Z,8.98
2023-10-26T06:25:26.935Z,9.09
2023-10-26T06:28:28.661Z,9.16
2023-10-26T06:31:30.153Z,9.21
2023-10-26T06:34:31.973Z,9.19
2023-10-26T06:37:33.657Z,9.12
2023-10-26T06:40:35.103Z,9.08
2023-10-26T06:43:37.434Z,9.18
2023-10-26T06:46:38.873Z,9.23
2023-10-26T06:49:42.451Z,9.22
2023-10-26T06:52:44.201Z,9.37
2023-10-26T06:55:46.041Z,9.42
2023-10-26T06:58:48.441Z,9.41
2023-10-26T07:02:08.795Z,9.37
2023-10-26T07:05:13.756Z,9.41
2023-10-26T07:08:15.237Z,9.49
2023-10-26T07:11:16.680Z,9.47
2023-10-26T07:14:18.098Z,9.46
2023-10-26T07:17:19.548Z,9.25
2023-10-26T07:20:21.087Z,9.48
2023-10-26T07:23:22.614Z,9.58
2023-10-26T07:26:24.155Z,9.61
2023-10-26T07:29:25.577Z,9.69
2023-10-26T07:32:27.031Z,9.71
2023-10-26T07:35:28.590Z,9.73
2023-10-26T07:38:35.117Z,9.58
2023-10-26T07:42:07.466Z,9.68
2023-10-26T07:45:00.172Z,9.76
2023-10-26T07:48:02.315Z,9.79
2023-10-26T07:51:04.281Z,9.86
2023-10-26T07:57:12.120Z,9.99
2023-10-26T08:00:14.149Z,10.03
2023-10-26T08:03:15.645Z,10.04
2023-10-26T08:06:17.084Z,10.13
2023-10-26T08:09:18.527Z,10.18
2023-10-26T08:12:19.959Z,10.09
2023-10-26T08:16:10.738Z,10.16
2023-10-26T08:18:44.986Z,10.13
2023-10-26T08:21:47.220Z,10.06
2023-10-26T08:24:48.866Z,10.34
2023-10-26T08:27:50.316Z,10.47
2023-10-26T08:30:53.779Z,10.57
2023-10-26T08:33:55.213Z,10.59
2023-10-26T08:37:12.169Z,10.58
2023-10-26T08:40:14.910Z,10.58
2023-10-26T08:43:16.509Z,10.48
2023-10-26T08:46:18.465Z,10.50
2023-10-26T08:49:20.424Z,10.67
2023-10-26T08:52:22.905Z,10.70
2023-10-26T08:55:24.414Z,10.92
2023-10-26T08:58:26.011Z,10.84
2023-10-26T09:01:27.540Z,10.90
2023-10-26T09:04:29.383Z,10.86
2023-10-26T09:07:31.443Z,10.89
2023-10-26T09:10:34.152Z,10.94
2023-10-26T09:13:36.106Z,10.85
2023-10-26T09:16:38.270Z,10.97
2023-10-26T09:19:40.393Z,11.19
2023-10-26T09:22:41.887Z,11.37
2023-10-26T09:25:53.787Z,11.32
2023-10-26T09:28:55.851Z,11.27
2023-10-26T09:31:57.935Z,11.50
2023-10-26T09:34:59.457Z,11.41
2023-10-26T09:38:01.083Z,11.17
2023-10-26T09:41:03.839Z,11.15
2023-10-26T09:44:05.710Z,11.58
2023-10-26T09:47:07.970Z,11.37
2023-10-26T09:50:09.993Z,11.66
2023-10-26T09:56:22.303Z,11.75
2023-10-26T09:59:24.296Z,11.82
2023-10-26T10:02:25.746Z,12.03
2023-10-26T10:05:37.902Z,11.96
2023-10-26T10:08:58.172Z,11.81
2023-10-26T10:12:17.936Z,11.77
2023-10-26T10:15:40.313Z,11.86
2023-10-26T10:19:02.013Z,11.97
2023-10-26T10:22:03.780Z,12.00
2023-10-26T10:25:05.991Z,11.95
2023-10-26T10:28:07.715Z,12.18
2023-10-26T10:31:10.757Z,12.05
2023-10-26T10:34:12.497Z,12.11
2023-10-26T10:37:14.177Z,12.43
2023-10-26T10:40:16.086Z,12.59
2023-10-26T10:43:17.542Z,13.02
2023-10-26T10:46:20.479Z,13.10
2023-10-26T10:49:24.908Z,13.59
2023-10-26T10:52:26.371Z,14.10
2023-10-26T10:55:31.459Z,14.14
2023-10-26T10:58:39.002Z,14.18
2023-10-26T11:01:40.518Z,14.00
2023-10-26T11:05:02.412Z,14.13
2023-10-26T11:08:11.310Z,14.38
2023-10-26T11:11:27.656Z,14.61
2023-10-26T11:14:29.567Z,14.45
2023-10-26T11:17:31.033Z,14.74
2023-10-26T11:20:39.207Z,14.51
2023-10-26T11:23:40.651Z,14.71
2023-10-26T11:26:42.076Z,14.72
2023-10-26T11:29:45.060Z,15.06
2023-10-26T11:32:46.610Z,15.14
2023-10-26T11:35:48.060Z,14.96
2023-10-26T11:38:49.811Z,15.07
2023-10-26T11:41:55.461Z,14.96
2023-10-26T11:44:57.364Z,14.95
2023-10-26T11:47:59.890Z,15.21
2023-10-26T11:51:03.968Z,15.15
2023-10-26T11:54:12.228Z,14.94
2023-10-26T11:57:13.662Z,15.30
2023-10-26T12:00:16.117Z,15.20
2023-10-26T12:03:17.587Z,15.44
2023-10-26T12:06:19.157Z,15.35
2023-10-26T12:09:20.612Z,15.25
2023-10-26T12:12:22.068Z,15.24
2023-10-26T12:15:23.578Z,15.15
2023-10-26T12:18:25.046Z,15.06
2023-10-26T12:21:26.662Z,14.72
2023-10-26T12:24:28.185Z,14.62
2023-10-26T12:27:29.631Z,14.50
2023-10-26T12:30:31.133Z,14.52
2023-10-26T12:33:34.153Z,14.38
2023-10-26T12:36:37.402Z,14.18
2023-10-26T12:39:38.897Z,14.27
2023-10-26T12:42:40.669Z,13.97
2023-10-26T12:45:42.169Z,13.79
2023-10-26T12:48:43.702Z,13.54
2023-10-26T12:51:45.206Z,13.08
2023-10-26T12:54:46.660Z,13.08
2023-10-26T12:57:48.435Z,13.21
2023-10-26T13:00:49.986Z,13.06
2023-10-26T13:03:52.358Z,13.10
2023-10-26T13:06:53.819Z,12.97
2023-10-26T13:09:55.275Z,12.86
2023-10-26T13:12:56.784Z,12.77
2023-10-26T13:15:58.296Z,12.87
2023-10-26T13:18:59.812Z,12.80
2023-10-26T13:22:01.310Z,12.81
2023-10-26T13:25:02.893Z,12.75
2023-10-26T13:28:04.644Z,12.89
2023-10-26T13:31:07.970Z,12.81
2023-10-26T13:34:09.693Z,12.76
2023-10-26T13:37:11.219Z,12.76
2023-10-26T13:40:12.771Z,12.93
2023-10-26T13:43:17.134Z,12.81
2023-10-26T13:46:18.602Z,12.99
2023-10-26T13:49:20.418Z,13.03
2023-10-26T13:52:21.885Z,12.95
2023-10-26T13:55:23.343Z,12.89
2023-10-26T13:58:24.783Z,12.99
2023-10-26T14:01:26.538Z,12.89
2023-10-26T14:04:28.064Z,12.93
2023-10-26T14:07:29.520Z,12.86
2023-10-26T14:10:30.928Z,12.81
2023-10-26T14:13:32.645Z,12.75
2023-10-26T14:16:34.148Z,12.56
2023-10-26T14:19:35.678Z,12.57
2023-10-26T14:22:37.216Z,12.64
2023-10-26T14:25:38.654Z,12.64
2023-10-26T14:28:40.067Z,12.62
2023-10-26T14:31:41.572Z,12.52
2023-10-26T14:34:44.880Z,12.61
2023-10-26T14:37:51.297Z,12.54
2023-10-26T14:40:56.178Z,12.46
2023-10-26T14:43:57.632Z,12.43
2023-10-26T14:46:59.163Z,12.27
2023-10-26T14:50:00.607Z,12.33
2023-10-26T14:53:02.097Z,12.61
2023-10-26T14:56:03.989Z,12.27
2023-10-26T14:59:06.428Z,12.39
2023-10-26T15:02:07.847Z,12.49
2023-10-26T15:05:10.212Z,12.46
2023-10-26T15:08:11.784Z,12.22
2023-10-26T15:11:24.394Z,12.05
2023-10-26T15:14:26.630Z,12.35
2023-10-26T15:17:28.223Z,12.26
2023-10-26T15:20:29.707Z,12.07
2023-10-26T15:23:31.158Z,12.20
2023-10-26T15:26:32.784Z,12.16
2023-10-26T15:29:35.258Z,12.13
2023-10-26T15:32:36.773Z,12.13
2023-10-26T15:35:38.236Z,12.06
2023-10-26T15:38:42.333Z,12.03
2023-10-26T15:41:44.089Z,12.01
2023-10-26T15:44:50.083Z,11.91
2023-10-26T15:47:51.846Z,11.90
2023-10-26T15:50:58.581Z,11.58
2023-10-26T15:54:00.247Z,11.76
2023-10-26T15:57:01.759Z,11.75
2023-10-26T16:00:07.541Z,11.54
2023-10-26T16:03:09.048Z,11.51
2023-10-26T16:06:10.701Z,11.62
2023-10-26T16:09:12.170Z,11.49
2023-10-26T16:12:13.786Z,11.50
2023-10-26T16:15:15.545Z,11.47
2023-10-26T16:18:17.013Z,11.39
2023-10-26T16:21:18.507Z,11.27
2023-10-26T16:24:21.015Z,10.99
2023-10-26T16:27:22.661Z,11.06
2023-10-26T16:30:24.059Z,11.04
2023-10-26T16:33:25.840Z,11.04
2023-10-26T16:36:27.313Z,11.15
2023-10-26T16:39:28.740Z,11.18
2023-10-26T16:42:30.204Z,11.09
2023-10-26T16:45:31.788Z,11.09
2023-10-26T16:48:33.350Z,10.98
2023-10-26T16:51:34.866Z,11.04
2023-10-26T16:54:36.423Z,11.06
2023-10-26T16:57:38.166Z,10.97
2023-10-26T17:00:41.665Z,10.92
2023-10-26T17:03:45.790Z,10.93
2023-10-26T17:06:47.285Z,11.00
2023-10-26T17:09:49.132Z,11.00
2023-10-26T17:12:50.651Z,10.95
2023-10-26T17:15:55.115Z,10.90
2023-10-26T17:18:57.620Z,10.93
2023-10-26T17:21:59.151Z,10.85
2023-10-26T17:25:00.769Z,10.87
2023-10-26T17:28:02.395Z,10.87
2023-10-26T17:31:05.486Z,10.86
2023-10-26T17:34:06.977Z,10.76
2023-10-26T17:37:08.608Z,10.76
2023-10-26T17:40:10.418Z,10.64
2023-10-26T17:43:13.754Z,10.82
2023-10-26T17:46:17.722Z,10.81
2023-10-26T17:49:19.331Z,10.73
2023-10-26T17:52:20.973Z,10.63
2023-10-26T17:55:23.126Z,10.54
2023-10-26T17:58:24.767Z,10.58
2023-10-26T18:01:26.329Z,10.69
2023-10-26T18:04:27.828Z,10.69
2023-10-26T18:07:29.312Z,10.72
2023-10-26T18:10:30.840Z,10.65
2023-10-26T18:13:32.630Z,10.67
2023-10-26T18:16:34.735Z,10.61
2023-10-26T18:19:36.189Z,10.76
2023-10-26T18:22:37.690Z,10.73
2023-10-26T18:25:39.261Z,10.77
2023-10-26T18:28:41.302Z,10.57
2023-10-26T18:31:43.408Z,10.64
2023-10-26T18:34:45.029Z,10.55
2023-10-26T18:37:46.630Z,10.58
2023-10-26T18:40:48.125Z,10.50
2023-10-26T18:43:49.874Z,10.65
2023-10-26T18:46:51.417Z,10.53
2023-10-26T18:49:52.897Z,10.49
2023-10-26T18:52:54.561Z,10.50
2023-10-26T18:55:56.159Z,10.52
2023-10-26T18:58:57.741Z,10.59
2023-10-26T19:02:01.333Z,10.56
2023-10-26T19:05:03.211Z,10.49
2023-10-26T19:08:05.193Z,10.45
2023-10-26T19:11:06.722Z,10.35
2023-10-26T19:14:08.278Z,10.38
2023-10-26T19:17:10.746Z,10.40
2023-10-26T19:20:12.903Z,10.44
2023-10-26T19:23:14.485Z,10.38
2023-10-26T19:26:15.966Z,10.45
2023-10-26T19:29:17.475Z,10.46
2023-10-26T19:32:20.016Z,10.49
2023-10-26T19:35:21.523Z,10.56
2023-10-26T19:38:23.005Z,10.48
2023-10-26T19:41:24.500Z,10.38
2023-10-26T19:44:25.967Z,10.55
2023-10-26T19:47:27.426Z,10.35
2023-10-26T19:50:30.640Z,10.43
2023-10-26T19:53:36.502Z,10.42
2023-10-26T19:56:38.353Z,10.43
2023-10-26T19:59:40.052Z,10.39
2023-10-26T20:02:41.596Z,10.44
2023-10-26T20:05:43.251Z,10.36
2023-10-26T20:08:44.800Z,10.39
2023-10-26T20:11:46.392Z,10.34
2023-10-26T20:14:47.891Z,10.28
2023-10-26T20:17:49.426Z,10.26
2023-10-26T20:20:50.895Z,10.23
2023-10-26T20:23:52.364Z,10.23
2023-10-26T20:26:53.831Z,10.17
2023-10-26T20:30:01.694Z,10.14
2023-10-26T20:33:05.513Z,10.12
2023-10-26T20:36:07.137Z,10.10
2023-10-26T20:39:10.892Z,10.09
2023-10-26T20:42:14.105Z,10.20
2023-10-26T20:45:15.721Z,10.16
2023-10-26T20:48:17.156Z,10.13
2023-10-26T20:51:18.699Z,10.21
2023-10-26T20:54:20.163Z,10.28
2023-10-26T20:57:21.714Z,10.30
2023-10-26T21:00:23.217Z,10.24
2023-10-26T21:03:24.665Z,10.19
2023-10-26T21:06:26.093Z,10.17
2023-10-26T21:09:28.061Z,10.15
2023-10-26T21:12:29.550Z,10.17
2023-10-26T21:15:31.042Z,10.18
2023-10-26T21:18:32.486Z,10.13
2023-10-26T21:21:34.095Z,10.06
2023-10-26T21:24:35.511Z,9.99
2023-10-26T21:27:37.010Z,10.09
2023-10-26T21:30:38.842Z,9.97
2023-10-26T21:33:40.336Z,10.07
2023-10-26T21:36:41.833Z,9.88
2023-10-26T21:39:43.568Z,9.90
2023-10-26T21:42:45.195Z,9.92
2023-10-26T21:45:46.750Z,9.84
2023-10-26T21:48:48.335Z,9.79
2023-10-26T21:51:49.811Z,9.90
2023-10-26T21:54:51.291Z,9.80
2023-10-26T21:57:52.877Z,9.81
2023-10-26T22:00:54.576Z,9.84
2023-10-26T22:04:18.024Z,9.73
2023-10-26T22:07:18.961Z,9.78
2023-10-26T22:10:20.872Z,9.73
2023-10-26T22:13:22.525Z,9.71
2023-10-26T22:16:24.156Z,9.70
2023-10-26T22:19:25.648Z,9.72
2023-10-26T22:22:27.112Z,9.79
2023-10-26T22:25:29.372Z,9.82
2023-10-26T22:28:30.913Z,9.90
2023-10-26T22:31:32.849Z,9.79
2023-10-26T22:34:34.329Z,9.74
2023-10-26T22:37:36.144Z,9.68
2023-10-26T22:40:37.627Z,9.63
2023-10-26T22:43:39.054Z,9.72
2023-10-26T22:46:40.513Z,9.75
2023-10-26T22:49:42.103Z,9.59
2023-10-26T22:52:43.660Z,9.65
2023-10-26T22:55:45.194Z,9.62
2023-10-26T22:58:46.695Z,9.65
2023-10-26T23:01:48.151Z,9.59
2023-10-26T23:04:51.304Z,9.58
2023-10-26T23:07:56.136Z,9.65
2023-10-26T23:10:57.600Z,9.69
2023-10-26T23:13:59.155Z,9.76
2023-10-26T23:17:00.620Z,9.81
2023-10-26T23:20:02.080Z,9.76
2023-10-26T23:23:03.576Z,9.81
2023-10-26T23:26:07.374Z,9.56
2023-10-26T23:29:08.871Z,9.55
2023-10-26T23:32:10.442Z,9.61
2023-10-26T23:35:11.923Z,9.51
2023-10-26T23:38:13.366Z,9.72
2023-10-26T23:41:17.357Z,9.66
2023-10-26T23:44:18.838Z,9.51
2023-10-26T23:47:20.424Z,9.44
2023-10-26T23:50:21.931Z,9.51
2023-10-26T23:53:23.407Z,9.38
2023-10-26T23:56:24.890Z,9.35
2023-10-26T23:59:26.355Z,9.50
